sensor_id;sensor_type;location;lat;lon;timestamp;pressure;altitude;pressure_sealevel;temperature
10058;BMP180;5068;51.286;7.518;2022-12-29T00:01:28;98112.00;;;12.50
10058;BMP180;5068;51.286;7.518;2022-12-29T00:03:02;98107.00;;;12.50
10058;BMP180;5068;51.286;7.518;2022-12-29T00:04:35;98095.00;;;12.50
10058;BMP180;5068;51.286;7.518;2022-12-29T00:06:09;98098.00;;;12.50
10058;BMP180;5068;51.286;7.518;2022-12-29T00:07:42;98097.00;;;12.50
10058;BMP180;5068;51.286;7.518;2022-12-29T00:09:16;98103.00;;;12.60
10058;BMP180;5068;51.286;7.518;2022-12-29T00:10:48;98098.00;;;12.60
10058;BMP180;5068;51.286;7.518;2022-12-29T00:12:21;98092.00;;;12.60
10058;BMP180;5068;51.286;7.518;2022-12-29T00:13:56;98106.00;;;12.60
10058;BMP180;5068;51.286;7.518;2022-12-29T00:15:52;98093.00;;;12.60
10058;BMP180;5068;51.286;7.518;2022-12-29T00:17:24;98100.00;;;12.60
10058;BMP180;5068;51.286;7.518;2022-12-29T00:18:58;98103.00;;;12.60
10058;BMP180;5068;51.286;7.518;2022-12-29T00:20:34;98105.00;;;12.60
10058;BMP180;5068;51.286;7.518;2022-12-29T00:22:25;98090.00;;;12.60
10058;BMP180;5068;51.286;7.518;2022-12-29T00:24:19;98092.00;;;12.60
10058;BMP180;5068;51.286;7.518;2022-12-29T00:26:19;98083.00;;;12.60
10058;BMP180;5068;51.286;7.518;2022-12-29T00:28:10;98080.00;;;12.60
10058;BMP180;5068;51.286;7.518;2022-12-29T00:30:08;98069.00;;;12.70
10058;BMP180;5068;51.286;7.518;2022-12-29T00:31:59;98059.00;;;12.60
10058;BMP180;5068;51.286;7.518;2022-12-29T00:33:50;98055.00;;;12.70
10058;BMP180;5068;51.286;7.518;2022-12-29T00:35:46;98055.00;;;12.60
10058;BMP180;5068;51.286;7.518;2022-12-29T00:37:20;98046.00;;;12.60
10058;BMP180;5068;51.286;7.518;2022-12-29T00:39:17;98069.00;;;12.70
10058;BMP180;5068;51.286;7.518;2022-12-29T00:41:20;98067.00;;;12.60
10058;BMP180;5068;51.286;7.518;2022-12-29T00:43:11;98064.00;;;12.60
10058;BMP180;5068;51.286;7.518;2022-12-29T00:45:04;98050.00;;;12.60
10058;BMP180;5068;51.286;7.518;2022-12-29T00:46:42;98064.00;;;12.60
10058;BMP180;5068;51.286;7.518;2022-12-29T00:48:16;98061.00;;;12.70
10058;BMP180;5068;51.286;7.518;2022-12-29T00:50:09;98046.00;;;12.70
10058;BMP180;5068;51.286;7.518;2022-12-29T00:51:43;98045.00;;;12.70
10058;BMP180;5068;51.286;7.518;2022-12-29T00:53:15;98043.00;;;12.70
10058;BMP180;5068;51.286;7.518;2022-12-29T00:54:49;98042.00;;;12.70
10058;BMP180;5068;51.286;7.518;2022-12-29T00:56:22;98047.00;;;12.70
10058;BMP180;5068;51.286;7.518;2022-12-29T00:57:54;98031.00;;;12.70
10058;BMP180;5068;51.286;7.518;2022-12-29T00:59:28;98037.00;;;12.80
10058;BMP180;5068;51.286;7.518;2022-12-29T01:01:05;98028.00;;;12.80
10058;BMP180;5068;51.286;7.518;2022-12-29T01:02:38;98044.00;;;12.80
10058;BMP180;5068;51.286;7.518;2022-12-29T01:04:12;98028.00;;;12.80
10058;BMP180;5068;51.286;7.518;2022-12-29T01:05:48;98021.00;;;12.80
10058;BMP180;5068;51.286;7.518;2022-12-29T01:07:23;98023.00;;;12.80
10058;BMP180;5068;51.286;7.518;2022-12-29T01:08:56;98028.00;;;12.80
10058;BMP180;5068;51.286;7.518;2022-12-29T01:11:00;98028.00;;;12.80
10058;BMP180;5068;51.286;7.518;2022-12-29T01:12:38;98023.00;;;12.80
10058;BMP180;5068;51.286;7.518;2022-12-29T01:14:18;98032.00;;;12.80
10058;BMP180;5068;51.286;7.518;2022-12-29T01:15:51;98036.00;;;12.80
10058;BMP180;5068;51.286;7.518;2022-12-29T01:17:28;98029.00;;;12.80
10058;BMP180;5068;51.286;7.518;2022-12-29T01:19:02;98034.00;;;12.80
10058;BMP180;5068;51.286;7.518;2022-12-29T01:20:43;98036.00;;;12.80
10058;BMP180;5068;51.286;7.518;2022-12-29T01:22:16;98031.00;;;12.90
10058;BMP180;5068;51.286;7.518;2022-12-29T01:23:49;98034.00;;;12.90
10058;BMP180;5068;51.286;7.518;2022-12-29T01:25:22;98025.00;;;12.90
10058;BMP180;5068;51.286;7.518;2022-12-29T01:26:55;98015.00;;;12.90
10058;BMP180;5068;51.286;7.518;2022-12-29T01:28:27;98012.00;;;12.90
10058;BMP180;5068;51.286;7.518;2022-12-29T01:30:01;98008.00;;;12.90
10058;BMP180;5068;51.286;7.518;2022-12-29T01:31:39;98007.00;;;12.90
10058;BMP180;5068;51.286;7.518;2022-12-29T01:33:15;98006.00;;;12.90
10058;BMP180;5068;51.286;7.518;2022-12-29T01:34:49;98006.00;;;12.90
10058;BMP180;5068;51.286;7.518;2022-12-29T01:36:24;98011.00;;;12.90
10058;BMP180;5068;51.286;7.518;2022-12-29T01:37:57;98017.00;;;12.90
10058;BMP180;5068;51.286;7.518;2022-12-29T01:39:30;98013.00;;;12.90
10058;BMP180;5068;51.286;7.518;2022-12-29T01:41:05;98017.00;;;12.90
10058;BMP180;5068;51.286;7.518;2022-12-29T01:42:38;98031.00;;;12.90
10058;BMP180;5068;51.286;7.518;2022-12-29T01:44:48;98022.00;;;12.90
10058;BMP180;5068;51.286;7.518;2022-12-29T01:46:34;98016.00;;;12.90
10058;BMP180;5068;51.286;7.518;2022-12-29T01:48:10;98013.00;;;12.90
10058;BMP180;5068;51.286;7.518;2022-12-29T01:49:45;98022.00;;;12.90
10058;BMP180;5068;51.286;7.518;2022-12-29T01:51:18;98016.00;;;12.90
10058;BMP180;5068;51.286;7.518;2022-12-29T01:52:58;98015.00;;;12.90
10058;BMP180;5068;51.286;7.518;2022-12-29T01:54:38;98011.00;;;12.90
10058;BMP180;5068;51.286;7.518;2022-12-29T01:56:17;98015.00;;;12.90
10058;BMP180;5068;51.286;7.518;2022-12-29T01:58:02;98009.00;;;12.90
10058;BMP180;5068;51.286;7.518;2022-12-29T01:59:41;98008.00;;;13.00
10058;BMP180;5068;51.286;7.518;2022-12-29T02:01:20;98015.00;;;13.00
10058;BMP180;5068;51.286;7.518;2022-12-29T02:02:54;98025.00;;;13.00
10058;BMP180;5068;51.286;7.518;2022-12-29T02:04:31;98029.00;;;13.00
10058;BMP180;5068;51.286;7.518;2022-12-29T02:06:15;98022.00;;;13.00
10058;BMP180;5068;51.286;7.518;2022-12-29T02:07:52;98035.00;;;13.00
10058;BMP180;5068;51.286;7.518;2022-12-29T02:09:26;98022.00;;;13.10
10058;BMP180;5068;51.286;7.518;2022-12-29T02:11:00;98027.00;;;13.10
10058;BMP180;5068;51.286;7.518;2022-12-29T02:12:33;98024.00;;;13.10
10058;BMP180;5068;51.286;7.518;2022-12-29T02:14:09;98022.00;;;13.10
10058;BMP180;5068;51.286;7.518;2022-12-29T02:15:56;98015.00;;;13.10
10058;BMP180;5068;51.286;7.518;2022-12-29T02:17:53;98026.00;;;13.10
10058;BMP180;5068;51.286;7.518;2022-12-29T02:20:33;98014.00;;;13.10
10058;BMP180;5068;51.286;7.518;2022-12-29T02:22:22;97992.00;;;13.10
10058;BMP180;5068;51.286;7.518;2022-12-29T02:26:47;98001.00;;;13.10
10058;BMP180;5068;51.286;7.518;2022-12-29T02:29:14;98009.00;;;13.10
10058;BMP180;5068;51.286;7.518;2022-12-29T02:31:08;98010.00;;;13.10
10058;BMP180;5068;51.286;7.518;2022-12-29T02:32:52;98005.00;;;13.10
10058;BMP180;5068;51.286;7.518;2022-12-29T02:34:40;98002.00;;;13.10
10058;BMP180;5068;51.286;7.518;2022-12-29T02:36:29;97999.00;;;13.10
10058;BMP180;5068;51.286;7.518;2022-12-29T02:38:18;97996.00;;;13.10
10058;BMP180;5068;51.286;7.518;2022-12-29T02:40:02;97994.00;;;13.10
10058;BMP180;5068;51.286;7.518;2022-12-29T02:41:50;97983.00;;;13.10
10058;BMP180;5068;51.286;7.518;2022-12-29T02:43:37;97980.00;;;13.10
10058;BMP180;5068;51.286;7.518;2022-12-29T02:45:20;97977.00;;;13.10
10058;BMP180;5068;51.286;7.518;2022-12-29T02:47:04;97980.00;;;13.10
10058;BMP180;5068;51.286;7.518;2022-12-29T02:48:43;97986.00;;;13.10
10058;BMP180;5068;51.286;7.518;2022-12-29T02:50:25;97985.00;;;13.10
10058;BMP180;5068;51.286;7.518;2022-12-29T02:52:04;97983.00;;;13.10
10058;BMP180;5068;51.286;7.518;2022-12-29T02:53:40;97981.00;;;13.20
10058;BMP180;5068;51.286;7.518;2022-12-29T02:55:37;97970.00;;;13.20
10058;BMP180;5068;51.286;7.518;2022-12-29T02:57:27;97971.00;;;13.20
10058;BMP180;5068;51.286;7.518;2022-12-29T02:59:00;97980.00;;;13.20
10058;BMP180;5068;51.286;7.518;2022-12-29T03:00:37;97974.00;;;13.20
10058;BMP180;5068;51.286;7.518;2022-12-29T03:04:37;97973.00;;;13.20
10058;BMP180;5068;51.286;7.518;2022-12-29T03:06:33;97984.00;;;13.20
10058;BMP180;5068;51.286;7.518;2022-12-29T03:08:20;97973.00;;;13.20
10058;BMP180;5068;51.286;7.518;2022-12-29T03:10:04;97967.00;;;13.20
10058;BMP180;5068;51.286;7.518;2022-12-29T03:11:53;97972.00;;;13.30
10058;BMP180;5068;51.286;7.518;2022-12-29T03:13:47;97971.00;;;13.30
10058;BMP180;5068;51.286;7.518;2022-12-29T03:15:46;97967.00;;;13.30
10058;BMP180;5068;51.286;7.518;2022-12-29T03:17:48;97966.00;;;13.30
10058;BMP180;5068;51.286;7.518;2022-12-29T03:19:27;97966.00;;;13.30
10058;BMP180;5068;51.286;7.518;2022-12-29T03:21:08;97968.00;;;13.20
10058;BMP180;5068;51.286;7.518;2022-12-29T03:22:47;97975.00;;;13.20
10058;BMP180;5068;51.286;7.518;2022-12-29T03:24:30;97962.00;;;13.20
10058;BMP180;5068;51.286;7.518;2022-12-29T03:26:10;97958.00;;;13.20
10058;BMP180;5068;51.286;7.518;2022-12-29T03:27:49;97954.00;;;13.30
10058;BMP180;5068;51.286;7.518;2022-12-29T03:29:26;97956.00;;;13.20
10058;BMP180;5068;51.286;7.518;2022-12-29T03:31:03;97958.00;;;13.20
10058;BMP180;5068;51.286;7.518;2022-12-29T03:32:46;97956.00;;;13.20
10058;BMP180;5068;51.286;7.518;2022-12-29T03:34:21;97959.00;;;13.30
10058;BMP180;5068;51.286;7.518;2022-12-29T03:36:02;97944.00;;;13.30
10058;BMP180;5068;51.286;7.518;2022-12-29T03:37:40;97940.00;;;13.30
10058;BMP180;5068;51.286;7.518;2022-12-29T03:39:14;97941.00;;;13.30
10058;BMP180;5068;51.286;7.518;2022-12-29T03:40:55;97950.00;;;13.30
10058;BMP180;5068;51.286;7.518;2022-12-29T03:42:35;97950.00;;;13.30
10058;BMP180;5068;51.286;7.518;2022-12-29T03:44:10;97939.00;;;13.30
10058;BMP180;5068;51.286;7.518;2022-12-29T03:45:44;97950.00;;;13.30
10058;BMP180;5068;51.286;7.518;2022-12-29T03:47:17;97936.00;;;13.20
10058;BMP180;5068;51.286;7.518;2022-12-29T03:48:52;97944.00;;;13.30
10058;BMP180;5068;51.286;7.518;2022-12-29T03:50:26;97945.00;;;13.30
10058;BMP180;5068;51.286;7.518;2022-12-29T03:51:59;97936.00;;;13.30
10058;BMP180;5068;51.286;7.518;2022-12-29T03:53:33;97945.00;;;13.30
10058;BMP180;5068;51.286;7.518;2022-12-29T03:55:08;97930.00;;;13.30
10058;BMP180;5068;51.286;7.518;2022-12-29T03:56:43;97937.00;;;13.20
10058;BMP180;5068;51.286;7.518;2022-12-29T03:58:16;97941.00;;;13.20
10058;BMP180;5068;51.286;7.518;2022-12-29T04:00:00;97936.00;;;13.20
10058;BMP180;5068;51.286;7.518;2022-12-29T04:01:54;97936.00;;;13.30
10058;BMP180;5068;51.286;7.518;2022-12-29T04:03:28;97933.00;;;13.20
10058;BMP180;5068;51.286;7.518;2022-12-29T04:05:01;97926.00;;;13.30
10058;BMP180;5068;51.286;7.518;2022-12-29T04:06:35;97937.00;;;13.30
10058;BMP180;5068;51.286;7.518;2022-12-29T04:08:11;97932.00;;;13.20
10058;BMP180;5068;51.286;7.518;2022-12-29T04:09:45;97930.00;;;13.30
10058;BMP180;5068;51.286;7.518;2022-12-29T04:11:24;97932.00;;;13.30
10058;BMP180;5068;51.286;7.518;2022-12-29T04:13:04;97924.00;;;13.30
10058;BMP180;5068;51.286;7.518;2022-12-29T04:14:38;97922.00;;;13.30
10058;BMP180;5068;51.286;7.518;2022-12-29T04:16:11;97921.00;;;13.30
10058;BMP180;5068;51.286;7.518;2022-12-29T04:17:47;97923.00;;;13.30
10058;BMP180;5068;51.286;7.518;2022-12-29T04:19:21;97923.00;;;13.30
10058;BMP180;5068;51.286;7.518;2022-12-29T04:20:54;97922.00;;;13.30
10058;BMP180;5068;51.286;7.518;2022-12-29T04:22:37;97929.00;;;13.30
10058;BMP180;5068;51.286;7.518;2022-12-29T04:24:10;97928.00;;;13.30
10058;BMP180;5068;51.286;7.518;2022-12-29T04:25:46;97926.00;;;13.30
10058;BMP180;5068;51.286;7.518;2022-12-29T04:27:20;97917.00;;;13.30
10058;BMP180;5068;51.286;7.518;2022-12-29T04:29:09;97913.00;;;13.30
10058;BMP180;5068;51.286;7.518;2022-12-29T04:30:53;97902.00;;;13.30
10058;BMP180;5068;51.286;7.518;2022-12-29T04:32:30;97909.00;;;13.30
10058;BMP180;5068;51.286;7.518;2022-12-29T04:34:05;97898.00;;;13.30
10058;BMP180;5068;51.286;7.518;2022-12-29T04:35:38;97902.00;;;13.30
10058;BMP180;5068;51.286;7.518;2022-12-29T04:37:10;97888.00;;;13.30
10058;BMP180;5068;51.286;7.518;2022-12-29T04:38:44;97886.00;;;13.30
10058;BMP180;5068;51.286;7.518;2022-12-29T04:40:18;97884.00;;;13.30
10058;BMP180;5068;51.286;7.518;2022-12-29T04:41:51;97874.00;;;13.30
10058;BMP180;5068;51.286;7.518;2022-12-29T04:43:26;97885.00;;;13.30
10058;BMP180;5068;51.286;7.518;2022-12-29T04:45:17;97883.00;;;13.30
10058;BMP180;5068;51.286;7.518;2022-12-29T04:46:57;97887.00;;;13.30
10058;BMP180;5068;51.286;7.518;2022-12-29T04:48:43;97872.00;;;13.30
10058;BMP180;5068;51.286;7.518;2022-12-29T04:50:31;97880.00;;;13.30
10058;BMP180;5068;51.286;7.518;2022-12-29T04:52:18;97884.00;;;13.30
10058;BMP180;5068;51.286;7.518;2022-12-29T04:53:51;97870.00;;;13.30
10058;BMP180;5068;51.286;7.518;2022-12-29T04:55:24;97880.00;;;13.30
10058;BMP180;5068;51.286;7.518;2022-12-29T04:56:57;97891.00;;;13.30
10058;BMP180;5068;51.286;7.518;2022-12-29T04:58:30;97889.00;;;13.30
10058;BMP180;5068;51.286;7.518;2022-12-29T05:00:06;97882.00;;;13.30
10058;BMP180;5068;51.286;7.518;2022-12-29T05:01:41;97901.00;;;13.30
10058;BMP180;5068;51.286;7.518;2022-12-29T05:03:15;97898.00;;;13.30
10058;BMP180;5068;51.286;7.518;2022-12-29T05:04:49;97877.00;;;13.30
10058;BMP180;5068;51.286;7.518;2022-12-29T05:06:25;97891.00;;;13.30
10058;BMP180;5068;51.286;7.518;2022-12-29T05:07:58;97913.00;;;13.30
10058;BMP180;5068;51.286;7.518;2022-12-29T05:09:32;97915.00;;;13.30
10058;BMP180;5068;51.286;7.518;2022-12-29T05:11:05;97918.00;;;13.30
10058;BMP180;5068;51.286;7.518;2022-12-29T05:12:39;97906.00;;;13.30
10058;BMP180;5068;51.286;7.518;2022-12-29T05:14:12;97922.00;;;13.40
10058;BMP180;5068;51.286;7.518;2022-12-29T05:15:49;97912.00;;;13.40
10058;BMP180;5068;51.286;7.518;2022-12-29T05:17:24;97915.00;;;13.40
10058;BMP180;5068;51.286;7.518;2022-12-29T05:18:58;97915.00;;;13.40
10058;BMP180;5068;51.286;7.518;2022-12-29T05:20:31;97915.00;;;13.40
10058;BMP180;5068;51.286;7.518;2022-12-29T05:22:06;97925.00;;;13.40
10058;BMP180;5068;51.286;7.518;2022-12-29T05:23:39;97913.00;;;13.50
10058;BMP180;5068;51.286;7.518;2022-12-29T05:25:13;97906.00;;;13.40
10058;BMP180;5068;51.286;7.518;2022-12-29T05:26:58;97915.00;;;13.40
10058;BMP180;5068;51.286;7.518;2022-12-29T05:28:42;97917.00;;;13.40
10058;BMP180;5068;51.286;7.518;2022-12-29T05:30:18;97918.00;;;13.50
10058;BMP180;5068;51.286;7.518;2022-12-29T05:31:51;97920.00;;;13.50
10058;BMP180;5068;51.286;7.518;2022-12-29T05:33:25;97910.00;;;13.50
10058;BMP180;5068;51.286;7.518;2022-12-29T05:34:59;97907.00;;;13.50
10058;BMP180;5068;51.286;7.518;2022-12-29T05:36:33;97911.00;;;13.50
10058;BMP180;5068;51.286;7.518;2022-12-29T05:38:12;97919.00;;;13.50
10058;BMP180;5068;51.286;7.518;2022-12-29T05:39:46;97920.00;;;13.60
10058;BMP180;5068;51.286;7.518;2022-12-29T05:41:19;97917.00;;;13.60
10058;BMP180;5068;51.286;7.518;2022-12-29T05:43:12;97929.00;;;13.60
10058;BMP180;5068;51.286;7.518;2022-12-29T05:45:08;97924.00;;;13.60
10058;BMP180;5068;51.286;7.518;2022-12-29T05:46:56;97932.00;;;13.60
10058;BMP180;5068;51.286;7.518;2022-12-29T05:48:49;97940.00;;;13.60
10058;BMP180;5068;51.286;7.518;2022-12-29T05:50:30;97944.00;;;13.60
10058;BMP180;5068;51.286;7.518;2022-12-29T05:52:13;97936.00;;;13.60
10058;BMP180;5068;51.286;7.518;2022-12-29T05:53:47;97943.00;;;13.60
10058;BMP180;5068;51.286;7.518;2022-12-29T05:55:21;97954.00;;;13.60
10058;BMP180;5068;51.286;7.518;2022-12-29T05:56:57;97946.00;;;13.60
10058;BMP180;5068;51.286;7.518;2022-12-29T05:58:31;97946.00;;;13.60
10058;BMP180;5068;51.286;7.518;2022-12-29T06:00:06;97949.00;;;13.70
10058;BMP180;5068;51.286;7.518;2022-12-29T06:01:51;97940.00;;;13.70
10058;BMP180;5068;51.286;7.518;2022-12-29T06:03:25;97940.00;;;13.70
10058;BMP180;5068;51.286;7.518;2022-12-29T06:04:58;97945.00;;;13.70
10058;BMP180;5068;51.286;7.518;2022-12-29T06:06:33;97954.00;;;13.70
10058;BMP180;5068;51.286;7.518;2022-12-29T06:08:07;97954.00;;;13.70
10058;BMP180;5068;51.286;7.518;2022-12-29T06:09:42;97947.00;;;13.70
10058;BMP180;5068;51.286;7.518;2022-12-29T06:11:15;97951.00;;;13.70
10058;BMP180;5068;51.286;7.518;2022-12-29T06:12:54;97946.00;;;13.70
10058;BMP180;5068;51.286;7.518;2022-12-29T06:14:28;97934.00;;;13.70
10058;BMP180;5068;51.286;7.518;2022-12-29T06:16:03;97943.00;;;13.70
10058;BMP180;5068;51.286;7.518;2022-12-29T06:17:37;97956.00;;;13.70
10058;BMP180;5068;51.286;7.518;2022-12-29T06:19:11;97951.00;;;13.70
10058;BMP180;5068;51.286;7.518;2022-12-29T06:20:45;97944.00;;;13.70
10058;BMP180;5068;51.286;7.518;2022-12-29T06:22:20;97946.00;;;13.70
10058;BMP180;5068;51.286;7.518;2022-12-29T06:23:54;97954.00;;;13.70
10058;BMP180;5068;51.286;7.518;2022-12-29T06:25:28;97945.00;;;13.70
10058;BMP180;5068;51.286;7.518;2022-12-29T06:27:04;97947.00;;;13.70
10058;BMP180;5068;51.286;7.518;2022-12-29T06:28:38;97946.00;;;13.70
10058;BMP180;5068;51.286;7.518;2022-12-29T06:30:12;97954.00;;;13.70
10058;BMP180;5068;51.286;7.518;2022-12-29T06:31:48;97929.00;;;13.70
10058;BMP180;5068;51.286;7.518;2022-12-29T06:33:23;97942.00;;;13.80
10058;BMP180;5068;51.286;7.518;2022-12-29T06:34:57;97941.00;;;13.70
10058;BMP180;5068;51.286;7.518;2022-12-29T06:36:31;97947.00;;;13.70
10058;BMP180;5068;51.286;7.518;2022-12-29T06:38:04;97937.00;;;13.80
10058;BMP180;5068;51.286;7.518;2022-12-29T06:39:38;97944.00;;;13.70
10058;BMP180;5068;51.286;7.518;2022-12-29T06:41:17;97933.00;;;13.80
10058;BMP180;5068;51.286;7.518;2022-12-29T06:43:10;97947.00;;;13.80
10058;BMP180;5068;51.286;7.518;2022-12-29T06:44:58;97946.00;;;13.80
10058;BMP180;5068;51.286;7.518;2022-12-29T06:46:32;97940.00;;;13.90
10058;BMP180;5068;51.286;7.518;2022-12-29T06:48:06;97951.00;;;13.90
10058;BMP180;5068;51.286;7.518;2022-12-29T06:49:40;97934.00;;;13.90
10058;BMP180;5068;51.286;7.518;2022-12-29T06:51:14;97935.00;;;13.90
10058;BMP180;5068;51.286;7.518;2022-12-29T06:52:48;97958.00;;;13.90
10058;BMP180;5068;51.286;7.518;2022-12-29T06:54:20;97966.00;;;13.90
10058;BMP180;5068;51.286;7.518;2022-12-29T06:55:54;97963.00;;;13.90
10058;BMP180;5068;51.286;7.518;2022-12-29T06:57:28;97962.00;;;13.90
10058;BMP180;5068;51.286;7.518;2022-12-29T06:59:01;97971.00;;;13.80
10058;BMP180;5068;51.286;7.518;2022-12-29T07:00:36;97972.00;;;13.90
10058;BMP180;5068;51.286;7.518;2022-12-29T07:02:10;97969.00;;;13.80
10058;BMP180;5068;51.286;7.518;2022-12-29T07:03:44;97966.00;;;13.80
10058;BMP180;5068;51.286;7.518;2022-12-29T07:05:19;97980.00;;;13.80
10058;BMP180;5068;51.286;7.518;2022-12-29T07:06:54;97982.00;;;13.80
10058;BMP180;5068;51.286;7.518;2022-12-29T07:08:28;97983.00;;;13.80
10058;BMP180;5068;51.286;7.518;2022-12-29T07:10:01;97978.00;;;13.80
10058;BMP180;5068;51.286;7.518;2022-12-29T07:11:36;97982.00;;;13.80
10058;BMP180;5068;51.286;7.518;2022-12-29T07:13:10;97984.00;;;13.80
10058;BMP180;5068;51.286;7.518;2022-12-29T07:14:46;97990.00;;;13.80
10058;BMP180;5068;51.286;7.518;2022-12-29T07:16:22;97983.00;;;13.80
10058;BMP180;5068;51.286;7.518;2022-12-29T07:17:55;97999.00;;;13.80
10058;BMP180;5068;51.286;7.518;2022-12-29T07:19:28;97993.00;;;13.80
10058;BMP180;5068;51.286;7.518;2022-12-29T07:21:02;98004.00;;;13.80
10058;BMP180;5068;51.286;7.518;2022-12-29T07:22:36;97992.00;;;13.80
10058;BMP180;5068;51.286;7.518;2022-12-29T07:24:10;97987.00;;;13.80
10058;BMP180;5068;51.286;7.518;2022-12-29T07:25:43;97998.00;;;13.80
10058;BMP180;5068;51.286;7.518;2022-12-29T07:27:17;98013.00;;;13.80
10058;BMP180;5068;51.286;7.518;2022-12-29T07:28:51;98017.00;;;13.80
10058;BMP180;5068;51.286;7.518;2022-12-29T07:30:24;98015.00;;;13.80
10058;BMP180;5068;51.286;7.518;2022-12-29T07:31:59;98017.00;;;13.80
10058;BMP180;5068;51.286;7.518;2022-12-29T07:33:33;98013.00;;;13.70
10058;BMP180;5068;51.286;7.518;2022-12-29T07:35:08;98024.00;;;13.70
10058;BMP180;5068;51.286;7.518;2022-12-29T07:36:41;98035.00;;;13.70
10058;BMP180;5068;51.286;7.518;2022-12-29T07:38:15;98029.00;;;13.70
10058;BMP180;5068;51.286;7.518;2022-12-29T07:39:49;98041.00;;;13.70
10058;BMP180;5068;51.286;7.518;2022-12-29T07:41:23;98039.00;;;13.70
10058;BMP180;5068;51.286;7.518;2022-12-29T07:42:56;98043.00;;;13.70
10058;BMP180;5068;51.286;7.518;2022-12-29T07:44:37;98036.00;;;13.70
10058;BMP180;5068;51.286;7.518;2022-12-29T07:46:30;98044.00;;;13.70
10058;BMP180;5068;51.286;7.518;2022-12-29T07:48:25;98047.00;;;13.70
10058;BMP180;5068;51.286;7.518;2022-12-29T07:49:58;98043.00;;;13.60
10058;BMP180;5068;51.286;7.518;2022-12-29T07:51:32;98046.00;;;13.60
10058;BMP180;5068;51.286;7.518;2022-12-29T07:53:04;98045.00;;;13.60
10058;BMP180;5068;51.286;7.518;2022-12-29T07:54:37;98046.00;;;13.60
10058;BMP180;5068;51.286;7.518;2022-12-29T07:56:11;98051.00;;;13.60
10058;BMP180;5068;51.286;7.518;2022-12-29T07:57:44;98046.00;;;13.60
10058;BMP180;5068;51.286;7.518;2022-12-29T07:59:18;98053.00;;;13.60
10058;BMP180;5068;51.286;7.518;2022-12-29T08:00:53;98057.00;;;13.60
10058;BMP180;5068;51.286;7.518;2022-12-29T08:02:27;98057.00;;;13.50
10058;BMP180;5068;51.286;7.518;2022-12-29T08:04:03;98057.00;;;13.50
10058;BMP180;5068;51.286;7.518;2022-12-29T08:05:38;98060.00;;;13.50
10058;BMP180;5068;51.286;7.518;2022-12-29T08:07:11;98063.00;;;13.50
10058;BMP180;5068;51.286;7.518;2022-12-29T08:08:44;98071.00;;;13.50
10058;BMP180;5068;51.286;7.518;2022-12-29T08:10:18;98089.00;;;13.50
10058;BMP180;5068;51.286;7.518;2022-12-29T08:11:51;98085.00;;;13.50
10058;BMP180;5068;51.286;7.518;2022-12-29T08:13:24;98080.00;;;13.50
10058;BMP180;5068;51.286;7.518;2022-12-29T08:15:03;98079.00;;;13.50
10058;BMP180;5068;51.286;7.518;2022-12-29T08:16:39;98071.00;;;13.40
10058;BMP180;5068;51.286;7.518;2022-12-29T08:18:13;98070.00;;;13.40
10058;BMP180;5068;51.286;7.518;2022-12-29T08:19:48;98075.00;;;13.40
10058;BMP180;5068;51.286;7.518;2022-12-29T08:21:21;98075.00;;;13.40
10058;BMP180;5068;51.286;7.518;2022-12-29T08:22:56;98095.00;;;13.40
10058;BMP180;5068;51.286;7.518;2022-12-29T08:24:29;98085.00;;;13.40
10058;BMP180;5068;51.286;7.518;2022-12-29T08:26:04;98090.00;;;13.40
10058;BMP180;5068;51.286;7.518;2022-12-29T08:27:38;98094.00;;;13.40
10058;BMP180;5068;51.286;7.518;2022-12-29T08:29:14;98097.00;;;13.40
10058;BMP180;5068;51.286;7.518;2022-12-29T08:30:47;98090.00;;;13.40
10058;BMP180;5068;51.286;7.518;2022-12-29T08:32:21;98081.00;;;13.40
10058;BMP180;5068;51.286;7.518;2022-12-29T08:33:55;98087.00;;;13.30
10058;BMP180;5068;51.286;7.518;2022-12-29T08:35:29;98074.00;;;13.30
10058;BMP180;5068;51.286;7.518;2022-12-29T08:37:03;98085.00;;;13.30
10058;BMP180;5068;51.286;7.518;2022-12-29T08:38:36;98081.00;;;13.30
10058;BMP180;5068;51.286;7.518;2022-12-29T08:40:10;98082.00;;;13.30
10058;BMP180;5068;51.286;7.518;2022-12-29T08:41:44;98083.00;;;13.30
10058;BMP180;5068;51.286;7.518;2022-12-29T08:43:18;98085.00;;;13.20
10058;BMP180;5068;51.286;7.518;2022-12-29T08:44:51;98079.00;;;13.20
10058;BMP180;5068;51.286;7.518;2022-12-29T08:46:24;98088.00;;;13.20
10058;BMP180;5068;51.286;7.518;2022-12-29T08:47:58;98075.00;;;13.20
10058;BMP180;5068;51.286;7.518;2022-12-29T08:49:31;98086.00;;;13.20
10058;BMP180;5068;51.286;7.518;2022-12-29T08:51:06;98078.00;;;13.20
10058;BMP180;5068;51.286;7.518;2022-12-29T08:52:40;98076.00;;;13.20
10058;BMP180;5068;51.286;7.518;2022-12-29T08:54:13;98076.00;;;13.30
10058;BMP180;5068;51.286;7.518;2022-12-29T08:55:55;98078.00;;;13.30
10058;BMP180;5068;51.286;7.518;2022-12-29T08:57:40;98073.00;;;13.30
10058;BMP180;5068;51.286;7.518;2022-12-29T08:59:20;98084.00;;;13.30
10058;BMP180;5068;51.286;7.518;2022-12-29T09:00:54;98085.00;;;13.30
10058;BMP180;5068;51.286;7.518;2022-12-29T09:02:27;98088.00;;;13.30
10058;BMP180;5068;51.286;7.518;2022-12-29T09:04:01;98079.00;;;13.20
10058;BMP180;5068;51.286;7.518;2022-12-29T09:05:48;98082.00;;;13.20
10058;BMP180;5068;51.286;7.518;2022-12-29T09:07:23;98083.00;;;13.20
10058;BMP180;5068;51.286;7.518;2022-12-29T09:08:57;98087.00;;;13.30
10058;BMP180;5068;51.286;7.518;2022-12-29T09:10:30;98071.00;;;13.30
10058;BMP180;5068;51.286;7.518;2022-12-29T09:12:19;98071.00;;;13.30
10058;BMP180;5068;51.286;7.518;2022-12-29T09:13:53;98078.00;;;13.20
10058;BMP180;5068;51.286;7.518;2022-12-29T09:15:26;98077.00;;;13.30
10058;BMP180;5068;51.286;7.518;2022-12-29T09:17:00;98078.00;;;13.30
10058;BMP180;5068;51.286;7.518;2022-12-29T09:18:51;98075.00;;;13.30
10058;BMP180;5068;51.286;7.518;2022-12-29T09:20:24;98084.00;;;13.30
10058;BMP180;5068;51.286;7.518;2022-12-29T09:21:57;98080.00;;;13.30
10058;BMP180;5068;51.286;7.518;2022-12-29T09:23:33;98099.00;;;13.30
10058;BMP180;5068;51.286;7.518;2022-12-29T09:25:08;98095.00;;;13.40
10058;BMP180;5068;51.286;7.518;2022-12-29T09:26:42;98099.00;;;13.40
10058;BMP180;5068;51.286;7.518;2022-12-29T09:28:18;98129.00;;;13.40
10058;BMP180;5068;51.286;7.518;2022-12-29T09:29:51;98120.00;;;13.40
10058;BMP180;5068;51.286;7.518;2022-12-29T09:31:25;98118.00;;;13.40
10058;BMP180;5068;51.286;7.518;2022-12-29T09:32:58;98127.00;;;13.40
10058;BMP180;5068;51.286;7.518;2022-12-29T09:34:34;98140.00;;;13.40
10058;BMP180;5068;51.286;7.518;2022-12-29T09:36:08;98143.00;;;13.50
10058;BMP180;5068;51.286;7.518;2022-12-29T09:37:43;98152.00;;;13.50
10058;BMP180;5068;51.286;7.518;2022-12-29T09:39:17;98152.00;;;13.50